sensor_id;sensor_type;location;lat;lon;timestamp;temperature;humidity
6788;DHT22;3431;47.966;10.268;2023-11-21T00:00:02;6.70;99.90
6788;DHT22;3431;47.966;10.268;2023-11-21T00:00:34;6.70;99.90
6788;DHT22;3431;47.966;10.268;2023-11-21T00:00:56;6.70;99.90
6788;DHT22;3431;47.966;10.268;2023-11-21T00:01:17;6.70;99.90
6788;DHT22;3431;47.966;10.268;2023-11-21T00:01:39;6.70;99.90
6788;DHT22;3431;47.966;10.268;2023-11-21T00:02:00;6.70;99.90
6788;DHT22;3431;47.966;10.268;2023-11-21T00:02:22;6.70;99.90
6788;DHT22;3431;47.966;10.268;2023-11-21T00:02:45;6.70;99.90
6788;DHT22;3431;47.966;10.268;2023-11-21T00:03:07;6.70;99.90
6788;DHT22;3431;47.966;10.268;2023-11-21T00:03:28;6.70;99.90
6788;DHT22;3431;47.966;10.268;2023-11-21T00:03:50;6.70;99.90
6788;DHT22;3431;47.966;10.268;2023-11-21T00:04:15;6.70;99.90
6788;DHT22;3431;47.966;10.268;2023-11-21T00:04:37;6.70;99.90
6788;DHT22;3431;47.966;10.268;2023-11-21T00:04:58;6.70;99.90
6788;DHT22;3431;47.966;10.268;2023-11-21T00:05:20;6.60;99.90
6788;DHT22;3431;47.966;10.268;2023-11-21T00:05:44;6.60;99.90
6788;DHT22;3431;47.966;10.268;2023-11-21T00:06:07;6.70;99.90
6788;DHT22;3431;47.966;10.268;2023-11-21T00:06:30;6.60;99.90
6788;DHT22;3431;47.966;10.268;2023-11-21T00:06:52;6.60;99.90
6788;DHT22;3431;47.966;10.268;2023-11-21T00:07:13;6.70;99.90
6788;DHT22;3431;47.966;10.268;2023-11-21T00:07:35;6.70;99.90
6788;DHT22;3431;47.966;10.268;2023-11-21T00:07:57;6.70;99.90
6788;DHT22;3431;47.966;10.268;2023-11-21T00:08:19;6.70;99.90
6788;DHT22;3431;47.966;10.268;2023-11-21T00:08:41;6.60;99.90
6788;DHT22;3431;47.966;10.268;2023-11-21T00:09:02;6.70;99.90
6788;DHT22;3431;47.966;10.268;2023-11-21T00:09:24;6.70;99.90
6788;DHT22;3431;47.966;10.268;2023-11-21T00:09:45;6.60;99.90
6788;DHT22;3431;47.966;10.268;2023-11-21T00:10:09;6.60;99.90
6788;DHT22;3431;47.966;10.268;2023-11-21T00:10:32;6.60;99.90
6788;DHT22;3431;47.966;10.268;2023-11-21T00:10:53;6.60;99.90
6788;DHT22;3431;47.966;10.268;2023-11-21T00:11:16;6.60;99.90
6788;DHT22;3431;47.966;10.268;2023-11-21T00:11:37;6.60;99.90
6788;DHT22;3431;47.966;10.268;2023-11-21T00:11:59;6.60;99.90
6788;DHT22;3431;47.966;10.268;2023-11-21T00:12:20;6.60;99.90
6788;DHT22;3431;47.966;10.268;2023-11-21T00:12:43;6.60;99.90
6788;DHT22;3431;47.966;10.268;2023-11-21T00:13:04;6.60;99.90
6788;DHT22;3431;47.966;10.268;2023-11-21T00:13:26;6.60;99.90
6788;DHT22;3431;47.966;10.268;2023-11-21T00:13:49;6.60;99.90
6788;DHT22;3431;47.966;10.268;2023-11-21T00:14:11;6.60;99.90
6788;DHT22;3431;47.966;10.268;2023-11-21T00:14:36;6.60;99.90
6788;DHT22;3431;47.966;10.268;2023-11-21T00:14:57;6.60;99.90
6788;DHT22;3431;47.966;10.268;2023-11-21T00:15:19;6.70;99.90
6788;DHT22;3431;47.966;10.268;2023-11-21T00:15:41;6.70;99.90
6788;DHT22;3431;47.966;10.268;2023-11-21T00:16:04;6.60;99.90
6788;DHT22;3431;47.966;10.268;2023-11-21T00:16:25;6.60;99.90
6788;DHT22;3431;47.966;10.268;2023-11-21T00:16:47;6.70;99.90
6788;DHT22;3431;47.966;10.268;2023-11-21T00:17:08;6.60;99.90
6788;DHT22;3431;47.966;10.268;2023-11-21T00:17:30;6.70;99.90
6788;DHT22;3431;47.966;10.268;2023-11-21T00:17:51;6.70;99.90
6788;DHT22;3431;47.966;10.268;2023-11-21T00:18:14;6.70;99.90
6788;DHT22;3431;47.966;10.268;2023-11-21T00:18:35;6.70;99.90
6788;DHT22;3431;47.966;10.268;2023-11-21T00:18:57;6.70;99.90
6788;DHT22;3431;47.966;10.268;2023-11-21T00:19:18;6.70;99.90
6788;DHT22;3431;47.966;10.268;2023-11-21T00:19:40;6.60;99.90
6788;DHT22;3431;47.966;10.268;2023-11-21T00:20:01;6.70;99.90
6788;DHT22;3431;47.966;10.268;2023-11-21T00:20:27;6.70;99.90
6788;DHT22;3431;47.966;10.268;2023-11-21T00:20:49;6.70;99.90
6788;DHT22;3431;47.966;10.268;2023-11-21T00:21:10;6.70;99.90
6788;DHT22;3431;47.966;10.268;2023-11-21T00:21:33;6.70;99.90
6788;DHT22;3431;47.966;10.268;2023-11-21T00:21:56;6.70;99.90
6788;DHT22;3431;47.966;10.268;2023-11-21T00:22:19;6.70;99.90
6788;DHT22;3431;47.966;10.268;2023-11-21T00:22:41;6.70;99.90
6788;DHT22;3431;47.966;10.268;2023-11-21T00:23:02;6.60;99.90
6788;DHT22;3431;47.966;10.268;2023-11-21T00:23:24;6.70;99.90
6788;DHT22;3431;47.966;10.268;2023-11-21T00:23:46;6.70;99.90
6788;DHT22;3431;47.966;10.268;2023-11-21T00:24:08;6.70;99.90
6788;DHT22;3431;47.966;10.268;2023-11-21T00:24:30;6.70;99.90
6788;DHT22;3431;47.966;10.268;2023-11-21T00:24:51;6.70;99.90
6788;DHT22;3431;47.966;10.268;2023-11-21T00:25:13;6.70;99.90
6788;DHT22;3431;47.966;10.268;2023-11-21T00:25:38;6.80;99.90
6788;DHT22;3431;47.966;10.268;2023-11-21T00:26:00;6.70;99.90
6788;DHT22;3431;47.966;10.268;2023-11-21T00:26:21;6.80;99.90
6788;DHT22;3431;47.966;10.268;2023-11-21T00:26:52;6.80;99.90
6788;DHT22;3431;47.966;10.268;2023-11-21T00:27:14;6.80;99.90
6788;DHT22;3431;47.966;10.268;2023-11-21T00:27:37;6.80;99.90
6788;DHT22;3431;47.966;10.268;2023-11-21T00:27:59;6.80;99.90
6788;DHT22;3431;47.966;10.268;2023-11-21T00:28:22;6.80;99.90
6788;DHT22;3431;47.966;10.268;2023-11-21T00:28:44;7.70;99.90
6788;DHT22;3431;47.966;10.268;2023-11-21T00:29:08;6.80;99.90
6788;DHT22;3431;47.966;10.268;2023-11-21T00:29:30;6.80;99.90
6788;DHT22;3431;47.966;10.268;2023-11-21T00:29:52;6.80;99.90
6788;DHT22;3431;47.966;10.268;2023-11-21T00:30:14;6.80;99.90
6788;DHT22;3431;47.966;10.268;2023-11-21T00:30:36;6.80;99.90
6788;DHT22;3431;47.966;10.268;2023-11-21T00:30:57;6.80;99.90
6788;DHT22;3431;47.966;10.268;2023-11-21T00:31:20;6.80;99.90
6788;DHT22;3431;47.966;10.268;2023-11-21T00:31:41;6.80;99.90
6788;DHT22;3431;47.966;10.268;2023-11-21T00:32:03;6.80;99.90
6788;DHT22;3431;47.966;10.268;2023-11-21T00:32:26;6.80;99.90
6788;DHT22;3431;47.966;10.268;2023-11-21T00:32:48;6.80;99.90
6788;DHT22;3431;47.966;10.268;2023-11-21T00:33:10;6.80;99.90
6788;DHT22;3431;47.966;10.268;2023-11-21T00:33:32;6.80;99.90
6788;DHT22;3431;47.966;10.268;2023-11-21T00:33:53;6.80;99.90
6788;DHT22;3431;47.966;10.268;2023-11-21T00:34:16;6.80;99.90
6788;DHT22;3431;47.966;10.268;2023-11-21T00:34:38;6.80;99.90
6788;DHT22;3431;47.966;10.268;2023-11-21T00:35:00;6.70;99.90
6788;DHT22;3431;47.966;10.268;2023-11-21T00:35:23;6.70;99.90
6788;DHT22;3431;47.966;10.268;2023-11-21T00:35:45;6.70;99.90
6788;DHT22;3431;47.966;10.268;2023-11-21T00:36:07;6.70;99.90
6788;DHT22;3431;47.966;10.268;2023-11-21T00:36:32;6.80;99.90
6788;DHT22;3431;47.966;10.268;2023-11-21T00:36:53;6.70;99.90
6788;DHT22;3431;47.966;10.268;2023-11-21T00:37:16;6.80;99.90
6788;DHT22;3431;47.966;10.268;2023-11-21T00:37:37;6.80;99.90
6788;DHT22;3431;47.966;10.268;2023-11-21T00:38:01;6.80;99.90
6788;DHT22;3431;47.966;10.268;2023-11-21T00:38:22;6.80;99.90
6788;DHT22;3431;47.966;10.268;2023-11-21T00:38:45;6.70;99.90
6788;DHT22;3431;47.966;10.268;2023-11-21T00:39:06;6.80;99.90
6788;DHT22;3431;47.966;10.268;2023-11-21T00:39:29;6.80;99.90
6788;DHT22;3431;47.966;10.268;2023-11-21T00:39:51;6.80;99.90
6788;DHT22;3431;47.966;10.268;2023-11-21T00:40:12;6.80;99.90
6788;DHT22;3431;47.966;10.268;2023-11-21T00:40:36;6.80;99.90
6788;DHT22;3431;47.966;10.268;2023-11-21T00:40:59;6.70;99.90
6788;DHT22;3431;47.966;10.268;2023-11-21T00:41:21;6.80;99.90
6788;DHT22;3431;47.966;10.268;2023-11-21T00:41:42;6.70;99.90
6788;DHT22;3431;47.966;10.268;2023-11-21T00:42:06;6.70;99.90
6788;DHT22;3431;47.966;10.268;2023-11-21T00:42:27;6.70;99.90
6788;DHT22;3431;47.966;10.268;2023-11-21T00:42:49;6.70;99.90
6788;DHT22;3431;47.966;10.268;2023-11-21T00:43:11;6.70;99.90
6788;DHT22;3431;47.966;10.268;2023-11-21T00:43:33;6.70;99.90
6788;DHT22;3431;47.966;10.268;2023-11-21T00:43:56;6.70;99.90
6788;DHT22;3431;47.966;10.268;2023-11-21T00:44:18;6.70;99.90
6788;DHT22;3431;47.966;10.268;2023-11-21T00:44:40;6.70;99.90
6788;DHT22;3431;47.966;10.268;2023-11-21T00:45:02;6.70;99.90
6788;DHT22;3431;47.966;10.268;2023-11-21T00:45:25;6.70;99.90
6788;DHT22;3431;47.966;10.268;2023-11-21T00:45:47;6.70;99.90
6788;DHT22;3431;47.966;10.268;2023-11-21T00:46:10;6.70;99.90
6788;DHT22;3431;47.966;10.268;2023-11-21T00:46:31;6.70;99.90
6788;DHT22;3431;47.966;10.268;2023-11-21T00:46:53;6.70;99.90
6788;DHT22;3431;47.966;10.268;2023-11-21T00:47:16;6.70;99.90
6788;DHT22;3431;47.966;10.268;2023-11-21T00:47:37;6.70;99.90
6788;DHT22;3431;47.966;10.268;2023-11-21T00:47:59;6.60;99.90
6788;DHT22;3431;47.966;10.268;2023-11-21T00:48:22;6.60;99.90
6788;DHT22;3431;47.966;10.268;2023-11-21T00:48:43;6.70;99.90
6788;DHT22;3431;47.966;10.268;2023-11-21T00:49:06;6.60;99.90
6788;DHT22;3431;47.966;10.268;2023-11-21T00:49:27;6.60;99.90
6788;DHT22;3431;47.966;10.268;2023-11-21T00:49:49;6.60;99.90
6788;DHT22;3431;47.966;10.268;2023-11-21T00:50:11;6.60;99.90
6788;DHT22;3431;47.966;10.268;2023-11-21T00:50:32;6.70;99.90
6788;DHT22;3431;47.966;10.268;2023-11-21T00:50:54;6.60;99.90
6788;DHT22;3431;47.966;10.268;2023-11-21T00:51:18;6.60;99.90
6788;DHT22;3431;47.966;10.268;2023-11-21T00:51:40;6.60;99.90
6788;DHT22;3431;47.966;10.268;2023-11-21T00:52:02;6.60;99.90
6788;DHT22;3431;47.966;10.268;2023-11-21T00:52:24;6.60;99.90
6788;DHT22;3431;47.966;10.268;2023-11-21T00:52:45;6.60;99.90
6788;DHT22;3431;47.966;10.268;2023-11-21T00:53:08;6.60;99.90
6788;DHT22;3431;47.966;10.268;2023-11-21T00:53:30;6.60;99.90
6788;DHT22;3431;47.966;10.268;2023-11-21T00:53:51;6.60;99.90
6788;DHT22;3431;47.966;10.268;2023-11-21T00:54:13;6.60;99.90
6788;DHT22;3431;47.966;10.268;2023-11-21T00:54:34;6.60;99.90
6788;DHT22;3431;47.966;10.268;2023-11-21T00:54:57;6.60;99.90
6788;DHT22;3431;47.966;10.268;2023-11-21T00:55:20;6.60;99.90
6788;DHT22;3431;47.966;10.268;2023-11-21T00:55:42;6.50;99.90
6788;DHT22;3431;47.966;10.268;2023-11-21T00:56:04;6.50;99.90
6788;DHT22;3431;47.966;10.268;2023-11-21T00:56:26;6.50;99.90
6788;DHT22;3431;47.966;10.268;2023-11-21T00:56:47;6.50;99.90
6788;DHT22;3431;47.966;10.268;2023-11-21T00:57:09;6.60;99.90
6788;DHT22;3431;47.966;10.268;2023-11-21T00:57:33;6.50;99.90
6788;DHT22;3431;47.966;10.268;2023-11-21T00:57:54;6.60;99.90
6788;DHT22;3431;47.966;10.268;2023-11-21T00:58:16;6.60;99.90
6788;DHT22;3431;47.966;10.268;2023-11-21T00:58:37;6.50;99.90
6788;DHT22;3431;47.966;10.268;2023-11-21T00:58:59;6.50;99.90
6788;DHT22;3431;47.966;10.268;2023-11-21T00:59:23;6.50;99.90
6788;DHT22;3431;47.966;10.268;2023-11-21T00:59:45;6.50;99.90
6788;DHT22;3431;47.966;10.268;2023-11-21T01:00:08;6.50;99.90
6788;DHT22;3431;47.966;10.268;2023-11-21T01:00:34;6.50;99.90
6788;DHT22;3431;47.966;10.268;2023-11-21T01:00:56;6.50;99.90
6788;DHT22;3431;47.966;10.268;2023-11-21T01:01:18;6.50;99.90
6788;DHT22;3431;47.966;10.268;2023-11-21T01:01:40;6.50;99.90
6788;DHT22;3431;47.966;10.268;2023-11-21T01:02:02;6.50;99.90
6788;DHT22;3431;47.966;10.268;2023-11-21T01:02:26;6.50;99.90
6788;DHT22;3431;47.966;10.268;2023-11-21T01:02:48;6.50;99.90
6788;DHT22;3431;47.966;10.268;2023-11-21T01:03:10;6.50;99.90
6788;DHT22;3431;47.966;10.268;2023-11-21T01:03:33;6.50;99.90
6788;DHT22;3431;47.966;10.268;2023-11-21T01:03:54;6.50;99.90
6788;DHT22;3431;47.966;10.268;2023-11-21T01:04:16;6.50;99.90
6788;DHT22;3431;47.966;10.268;2023-11-21T01:04:37;6.50;99.90
6788;DHT22;3431;47.966;10.268;2023-11-21T01:04:59;6.50;99.90
6788;DHT22;3431;47.966;10.268;2023-11-21T01:05:20;6.50;99.90
6788;DHT22;3431;47.966;10.268;2023-11-21T01:05:43;6.50;99.90
6788;DHT22;3431;47.966;10.268;2023-11-21T01:06:05;6.50;99.90
6788;DHT22;3431;47.966;10.268;2023-11-21T01:06:29;6.50;99.90
6788;DHT22;3431;47.966;10.268;2023-11-21T01:06:51;6.50;99.90
6788;DHT22;3431;47.966;10.268;2023-11-21T01:07:12;6.50;99.90
6788;DHT22;3431;47.966;10.268;2023-11-21T01:07:34;6.50;99.90
6788;DHT22;3431;47.966;10.268;2023-11-21T01:07:57;6.50;99.90
6788;DHT22;3431;47.966;10.268;2023-11-21T01:08:19;6.50;99.90
6788;DHT22;3431;47.966;10.268;2023-11-21T01:08:41;6.50;99.90
6788;DHT22;3431;47.966;10.268;2023-11-21T01:09:05;6.50;99.90
6788;DHT22;3431;47.966;10.268;2023-11-21T01:09:29;6.50;99.90
6788;DHT22;3431;47.966;10.268;2023-11-21T01:09:51;6.40;99.90
6788;DHT22;3431;47.966;10.268;2023-11-21T01:10:13;6.50;99.90
6788;DHT22;3431;47.966;10.268;2023-11-21T01:10:35;6.50;99.90
6788;DHT22;3431;47.966;10.268;2023-11-21T01:10:57;6.40;99.90
6788;DHT22;3431;47.966;10.268;2023-11-21T01:11:18;6.40;99.90
6788;DHT22;3431;47.966;10.268;2023-11-21T01:11:41;6.40;99.90
6788;DHT22;3431;47.966;10.268;2023-11-21T01:12:03;6.40;99.90
6788;DHT22;3431;47.966;10.268;2023-11-21T01:12:25;6.40;99.90
6788;DHT22;3431;47.966;10.268;2023-11-21T01:12:47;6.40;99.90
6788;DHT22;3431;47.966;10.268;2023-11-21T01:13:11;6.40;99.90
6788;DHT22;3431;47.966;10.268;2023-11-21T01:13:34;6.40;99.90
6788;DHT22;3431;47.966;10.268;2023-11-21T01:13:56;6.40;99.90
6788;DHT22;3431;47.966;10.268;2023-11-21T01:14:19;6.40;99.90
6788;DHT22;3431;47.966;10.268;2023-11-21T01:14:42;6.40;99.90
6788;DHT22;3431;47.966;10.268;2023-11-21T01:15:05;6.40;99.90
6788;DHT22;3431;47.966;10.268;2023-11-21T01:15:29;6.40;99.90
6788;DHT22;3431;47.966;10.268;2023-11-21T01:15:51;6.40;99.90
6788;DHT22;3431;47.966;10.268;2023-11-21T01:16:12;6.40;99.90
6788;DHT22;3431;47.966;10.268;2023-11-21T01:16:34;6.40;99.90
6788;DHT22;3431;47.966;10.268;2023-11-21T01:16:57;6.40;99.90
6788;DHT22;3431;47.966;10.268;2023-11-21T01:17:20;6.40;99.90
6788;DHT22;3431;47.966;10.268;2023-11-21T01:17:43;6.40;99.90
6788;DHT22;3431;47.966;10.268;2023-11-21T01:18:05;6.40;99.90
6788;DHT22;3431;47.966;10.268;2023-11-21T01:18:26;6.40;99.90
6788;DHT22;3431;47.966;10.268;2023-11-21T01:18:48;6.40;99.90
6788;DHT22;3431;47.966;10.268;2023-11-21T01:19:09;6.40;99.90
6788;DHT22;3431;47.966;10.268;2023-11-21T01:19:31;6.40;99.90
6788;DHT22;3431;47.966;10.268;2023-11-21T01:19:52;6.40;99.90
6788;DHT22;3431;47.966;10.268;2023-11-21T01:20:15;6.30;99.90
6788;DHT22;3431;47.966;10.268;2023-11-21T01:20:36;6.40;99.90
6788;DHT22;3431;47.966;10.268;2023-11-21T01:20:58;6.30;99.90
6788;DHT22;3431;47.966;10.268;2023-11-21T01:21:21;6.30;99.90
6788;DHT22;3431;47.966;10.268;2023-11-21T01:21:44;6.30;99.90
6788;DHT22;3431;47.966;10.268;2023-11-21T01:22:05;6.30;99.90
6788;DHT22;3431;47.966;10.268;2023-11-21T01:22:28;6.30;99.90
6788;DHT22;3431;47.966;10.268;2023-11-21T01:22:50;6.30;99.90
6788;DHT22;3431;47.966;10.268;2023-11-21T01:23:11;6.30;99.90
6788;DHT22;3431;47.966;10.268;2023-11-21T01:23:33;6.30;99.90
6788;DHT22;3431;47.966;10.268;2023-11-21T01:23:54;6.30;99.90
6788;DHT22;3431;47.966;10.268;2023-11-21T01:24:16;6.30;99.90
6788;DHT22;3431;47.966;10.268;2023-11-21T01:24:39;6.30;99.90
6788;DHT22;3431;47.966;10.268;2023-11-21T01:25:00;6.30;99.90
6788;DHT22;3431;47.966;10.268;2023-11-21T01:25:22;6.30;99.90
6788;DHT22;3431;47.966;10.268;2023-11-21T01:25:44;6.30;99.90
6788;DHT22;3431;47.966;10.268;2023-11-21T01:26:06;6.30;99.90
6788;DHT22;3431;47.966;10.268;2023-11-21T01:26:31;6.20;99.90
6788;DHT22;3431;47.966;10.268;2023-11-21T01:26:53;6.20;99.90
6788;DHT22;3431;47.966;10.268;2023-11-21T01:27:14;6.30;99.90
6788;DHT22;3431;47.966;10.268;2023-11-21T01:27:36;6.30;99.90
6788;DHT22;3431;47.966;10.268;2023-11-21T01:27:58;6.20;99.90
6788;DHT22;3431;47.966;10.268;2023-11-21T01:28:20;6.20;99.90
6788;DHT22;3431;47.966;10.268;2023-11-21T01:28:42;6.20;99.90
6788;DHT22;3431;47.966;10.268;2023-11-21T01:29:03;6.20;99.90
6788;DHT22;3431;47.966;10.268;2023-11-21T01:29:25;6.20;99.90
6788;DHT22;3431;47.966;10.268;2023-11-21T01:29:48;6.20;99.90
6788;DHT22;3431;47.966;10.268;2023-11-21T01:30:11;6.20;99.90
6788;DHT22;3431;47.966;10.268;2023-11-21T01:30:33;6.20;99.90
6788;DHT22;3431;47.966;10.268;2023-11-21T01:30:55;6.20;99.90
6788;DHT22;3431;47.966;10.268;2023-11-21T01:31:17;6.20;99.90
6788;DHT22;3431;47.966;10.268;2023-11-21T01:31:39;6.20;99.90
6788;DHT22;3431;47.966;10.268;2023-11-21T01:32:02;6.20;99.90
6788;DHT22;3431;47.966;10.268;2023-11-21T01:32:23;6.20;99.90
6788;DHT22;3431;47.966;10.268;2023-11-21T01:32:46;6.20;99.90
6788;DHT22;3431;47.966;10.268;2023-11-21T01:33:07;6.20;99.90
6788;DHT22;3431;47.966;10.268;2023-11-21T01:33:29;6.20;99.90
6788;DHT22;3431;47.966;10.268;2023-11-21T01:33:51;6.20;99.90
6788;DHT22;3431;47.966;10.268;2023-11-21T01:34:12;6.20;99.90
6788;DHT22;3431;47.966;10.268;2023-11-21T01:34:35;6.20;99.90
6788;DHT22;3431;47.966;10.268;2023-11-21T01:34:57;6.20;99.90
6788;DHT22;3431;47.966;10.268;2023-11-21T01:35:18;6.20;99.90
6788;DHT22;3431;47.966;10.268;2023-11-21T01:35:40;6.20;99.90
6788;DHT22;3431;47.966;10.268;2023-11-21T01:36:04;6.20;99.90
6788;DHT22;3431;47.966;10.268;2023-11-21T01:36:30;6.20;99.90
6788;DHT22;3431;47.966;10.268;2023-11-21T01:36:53;6.20;99.90
6788;DHT22;3431;47.966;10.268;2023-11-21T01:37:14;6.10;99.90
6788;DHT22;3431;47.966;10.268;2023-11-21T01:37:36;6.20;99.90
6788;DHT22;3431;47.966;10.268;2023-11-21T01:37:58;6.20;99.90
6788;DHT22;3431;47.966;10.268;2023-11-21T01:38:21;6.20;99.90
6788;DHT22;3431;47.966;10.268;2023-11-21T01:38:43;6.20;99.90
6788;DHT22;3431;47.966;10.268;2023-11-21T01:39:04;6.10;99.90
6788;DHT22;3431;47.966;10.268;2023-11-21T01:39:29;6.10;99.90
6788;DHT22;3431;47.966;10.268;2023-11-21T01:39:51;6.10;99.90
6788;DHT22;3431;47.966;10.268;2023-11-21T01:40:13;6.20;99.90
6788;DHT22;3431;47.966;10.268;2023-11-21T01:40:35;6.10;99.90
6788;DHT22;3431;47.966;10.268;2023-11-21T01:40:56;6.20;99.90
6788;DHT22;3431;47.966;10.268;2023-11-21T01:41:18;6.10;99.90
6788;DHT22;3431;47.966;10.268;2023-11-21T01:41:41;6.10;99.90
6788;DHT22;3431;47.966;10.268;2023-11-21T01:42:06;6.10;99.90
6788;DHT22;3431;47.966;10.268;2023-11-21T01:42:28;6.10;99.90
6788;DHT22;3431;47.966;10.268;2023-11-21T01:42:50;6.20;99.90
6788;DHT22;3431;47.966;10.268;2023-11-21T01:43:12;6.10;99.90
6788;DHT22;3431;47.966;10.268;2023-11-21T01:43:34;6.10;99.90
6788;DHT22;3431;47.966;10.268;2023-11-21T01:43:56;6.10;99.90
6788;DHT22;3431;47.966;10.268;2023-11-21T01:44:18;6.10;99.90
6788;DHT22;3431;47.966;10.268;2023-11-21T01:44:40;6.10;99.90
6788;DHT22;3431;47.966;10.268;2023-11-21T01:45:04;6.10;99.90
6788;DHT22;3431;47.966;10.268;2023-11-21T01:45:26;6.10;99.90
6788;DHT22;3431;47.966;10.268;2023-11-21T01:45:50;6.10;99.90
6788;DHT22;3431;47.966;10.268;2023-11-21T01:46:12;6.10;99.90
6788;DHT22;3431;47.966;10.268;2023-11-21T01:46:33;6.10;99.90
6788;DHT22;3431;47.966;10.268;2023-11-21T01:46:56;6.10;99.90
6788;DHT22;3431;47.966;10.268;2023-11-21T01:47:18;6.10;99.90
6788;DHT22;3431;47.966;10.268;2023-11-21T01:47:44;6.10;99.90
6788;DHT22;3431;47.966;10.268;2023-11-21T01:48:06;6.10;99.90
6788;DHT22;3431;47.966;10.268;2023-11-21T01:48:28;6.10;99.90
6788;DHT22;3431;47.966;10.268;2023-11-21T01:48:50;6.10;99.90
6788;DHT22;3431;47.966;10.268;2023-11-21T01:49:11;6.10;99.90
6788;DHT22;3431;47.966;10.268;2023-11-21T01:49:34;6.10;99.90
6788;DHT22;3431;47.966;10.268;2023-11-21T01:49:56;6.10;99.90
6788;DHT22;3431;47.966;10.268;2023-11-21T01:50:19;6.10;99.90
6788;DHT22;3431;47.966;10.268;2023-11-21T01:50:41;6.10;99.90
6788;DHT22;3431;47.966;10.268;2023-11-21T01:51:03;6.10;99.90
6788;DHT22;3431;47.966;10.268;2023-11-21T01:51:26;6.10;99.90
6788;DHT22;3431;47.966;10.268;2023-11-21T01:51:48;6.10;99.90
6788;DHT22;3431;47.966;10.268;2023-11-21T01:52:11;6.10;99.90
6788;DHT22;3431;47.966;10.268;2023-11-21T01:52:34;6.10;99.90
6788;DHT22;3431;47.966;10.268;2023-11-21T01:52:57;6.10;99.90
6788;DHT22;3431;47.966;10.268;2023-11-21T01:53:19;6.10;99.90
6788;DHT22;3431;47.966;10.268;2023-11-21T01:53:41;6.10;99.90
6788;DHT22;3431;47.966;10.268;2023-11-21T01:54:03;6.10;99.90
6788;DHT22;3431;47.966;10.268;2023-11-21T01:54:26;6.10;99.90
6788;DHT22;3431;47.966;10.268;2023-11-21T01:54:48;6.10;99.90
6788;DHT22;3431;47.966;10.268;2023-11-21T01:55:10;6.10;99.90
6788;DHT22;3431;47.966;10.268;2023-11-21T01:55:33;6.10;99.90
6788;DHT22;3431;47.966;10.268;2023-11-21T01:55:56;6.10;99.90
6788;DHT22;3431;47.966;10.268;2023-11-21T01:56:18;6.10;99.90
6788;DHT22;3431;47.966;10.268;2023-11-21T01:56:40;6.10;99.90
6788;DHT22;3431;47.966;10.268;2023-11-21T01:57:02;6.10;99.90
6788;DHT22;3431;47.966;10.268;2023-11-21T01:57:28;6.10;99.90
6788;DHT22;3431;47.966;10.268;2023-11-21T01:57:50;6.10;99.90
6788;DHT22;3431;47.966;10.268;2023-11-21T01:58:12;6.10;99.90
6788;DHT22;3431;47.966;10.268;2023-11-21T01:58:34;6.10;99.90
6788;DHT22;3431;47.966;10.268;2023-11-21T01:58:55;6.10;99.90
6788;DHT22;3431;47.966;10.268;2023-11-21T01:59:19;6.10;99.90
6788;DHT22;3431;47.966;10.268;2023-11-21T01:59:44;6.10;99.90
6788;DHT22;3431;47.966;10.268;2023-11-21T02:00:09;6.10;99.90
6788;DHT22;3431;47.966;10.268;2023-11-21T02:00:36;6.10;99.90
6788;DHT22;3431;47.966;10.268;2023-11-21T02:00:59;6.10;99.90
6788;DHT22;3431;47.966;10.268;2023-11-21T02:01:23;6.10;99.90
6788;DHT22;3431;47.966;10.268;2023-11-21T02:01:44;6.10;99.90
6788;DHT22;3431;47.966;10.268;2023-11-21T02:02:08;6.10;99.90
6788;DHT22;3431;47.966;10.268;2023-11-21T02:02:32;6.10;99.90
6788;DHT22;3431;47.966;10.268;2023-11-21T02:02:54;6.10;99.90
6788;DHT22;3431;47.966;10.268;2023-11-21T02:03:16;6.00;99.90
6788;DHT22;3431;47.966;10.268;2023-11-21T02:03:38;6.10;99.90
6788;DHT22;3431;47.966;10.268;2023-11-21T02:04:00;6.10;99.90
6788;DHT22;3431;47.966;10.268;2023-11-21T02:04:23;6.10;99.90
6788;DHT22;3431;47.966;10.268;2023-11-21T02:04:45;6.00;99.90
6788;DHT22;3431;47.966;10.268;2023-11-21T02:05:07;6.10;99.90
6788;DHT22;3431;47.966;10.268;2023-11-21T02:05:30;6.00;99.90
6788;DHT22;3431;47.966;10.268;2023-11-21T02:05:53;6.00;99.90
6788;DHT22;3431;47.966;10.268;2023-11-21T02:06:16;6.00;99.90
6788;DHT22;3431;47.966;10.268;2023-11-21T02:06:37;6.10;99.90
6788;DHT22;3431;47.966;10.268;2023-11-21T02:07:00;6.00;99.90
6788;DHT22;3431;47.966;10.268;2023-11-21T02:07:22;6.10;99.90
6788;DHT22;3431;47.966;10.268;2023-11-21T02:07:46;6.10;99.90
6788;DHT22;3431;47.966;10.268;2023-11-21T02:08:09;6.10;99.90
6788;DHT22;3431;47.966;10.268;2023-11-21T02:08:32;6.10;99.90
6788;DHT22;3431;47.966;10.268;2023-11-21T02:08:53;6.10;99.90
6788;DHT22;3431;47.966;10.268;2023-11-21T02:09:15;6.10;99.90
6788;DHT22;3431;47.966;10.268;2023-11-21T02:09:36;6.10;99.90
6788;DHT22;3431;47.966;10.268;2023-11-21T02:10:00;6.10;99.90
6788;DHT22;3431;47.966;10.268;2023-11-21T02:10:22;6.10;99.90
6788;DHT22;3431;47.966;10.268;2023-11-21T02:10:44;6.10;99.90
6788;DHT22;3431;47.966;10.268;2023-11-21T02:11:05;6.00;99.90
6788;DHT22;3431;47.966;10.268;2023-11-21T02:11:27;6.00;99.90
6788;DHT22;3431;47.966;10.268;2023-11-21T02:11:49;6.10;99.90
6788;DHT22;3431;47.966;10.268;2023-11-21T02:12:12;6.00;99.90
6788;DHT22;3431;47.966;10.268;2023-11-21T02:12:34;6.00;99.90
6788;DHT22;3431;47.966;10.268;2023-11-21T02:12:56;6.00;99.90
6788;DHT22;3431;47.966;10.268;2023-11-21T02:13:18;6.10;99.90
6788;DHT22;3431;47.966;10.268;2023-11-21T02:13:40;6.10;99.90
6788;DHT22;3431;47.966;10.268;2023-11-21T02:14:04;6.10;99.90
6788;DHT22;3431;47.966;10.268;2023-11-21T02:14:28;6.00;99.90
6788;DHT22;3431;47.966;10.268;2023-11-21T02:14:50;6.10;99.90
6788;DHT22;3431;47.966;10.268;2023-11-21T02:15:14;6.00;99.90
6788;DHT22;3431;47.966;10.268;2023-11-21T02:15:38;6.10;99.90
6788;DHT22;3431;47.966;10.268;2023-11-21T02:16:01;6.10;99.90
6788;DHT22;3431;47.966;10.268;2023-11-21T02:16:23;6.10;99.90
6788;DHT22;3431;47.966;10.268;2023-11-21T02:16:44;6.10;99.90
6788;DHT22;3431;47.966;10.268;2023-11-21T02:17:10;6.00;99.90
6788;DHT22;3431;47.966;10.268;2023-11-21T02:17:33;6.00;99.90
6788;DHT22;3431;47.966;10.268;2023-11-21T02:17:55;6.10;99.90
6788;DHT22;3431;47.966;10.268;2023-11-21T02:18:19;6.00;99.90
6788;DHT22;3431;47.966;10.268;2023-11-21T02:18:41;6.10;99.90
6788;DHT22;3431;47.966;10.268;2023-11-21T02:19:05;6.00;99.90
6788;DHT22;3431;47.966;10.268;2023-11-21T02:19:31;6.00;99.90
6788;DHT22;3431;47.966;10.268;2023-11-21T02:19:53;6.00;99.90
6788;DHT22;3431;47.966;10.268;2023-11-21T02:20:17;6.00;99.90
6788;DHT22;3431;47.966;10.268;2023-11-21T02:20:39;6.00;99.90
6788;DHT22;3431;47.966;10.268;2023-11-21T02:21:04;6.00;99.90
6788;DHT22;3431;47.966;10.268;2023-11-21T02:21:27;6.00;99.90
6788;DHT22;3431;47.966;10.268;2023-11-21T02:21:50;6.10;99.90
6788;DHT22;3431;47.966;10.268;2023-11-21T02:22:14;6.00;99.90
6788;DHT22;3431;47.966;10.268;2023-11-21T02:22:40;6.00;99.90
6788;DHT22;3431;47.966;10.268;2023-11-21T02:23:03;6.00;99.90
6788;DHT22;3431;47.966;10.268;2023-11-21T02:23:26;6.10;99.90
6788;DHT22;3431;47.966;10.268;2023-11-21T02:23:50;6.00;99.90
6788;DHT22;3431;47.966;10.268;2023-11-21T02:24:12;6.00;99.90
6788;DHT22;3431;47.966;10.268;2023-11-21T02:24:34;6.10;99.90
6788;DHT22;3431;47.966;10.268;2023-11-21T02:24:56;6.00;99.90
6788;DHT22;3431;47.966;10.268;2023-11-21T02:25:18;6.00;99.90
6788;DHT22;3431;47.966;10.268;2023-11-21T02:25:39;6.00;99.90
6788;DHT22;3431;47.966;10.268;2023-11-21T02:26:04;6.00;99.90